Delta Virtual Airport Information Service

Atlanta Hartsfield-Jackson International Airport

ICAO: KATL Country: United States
Latitude: 33.6367 Longitude: -84.428
Latest Arrival : DALJUMP (KMSY-KATL) Latest Departure : KLM622 (KATL-EHAM)


WX CaptureLIVE
Data provided by noaa.gov | Fetched at 12:07:11

METAR : KATL 281654Z 11012KT 1SM R09R/P6000FT -RA BR OVC005 14/13 A2962 RMK AO2 SFC VIS 2 VIS 1V3 CIG 003V007 P0000 T01390128

TAF : KATL 281555Z 2816/2918 12015G28KT P6SM -SHRA BKN006 BKN015 OVC020 TEMPO 2816/2818 2SM -RA BR BKN004 BKN015 OVC020 FM282000 15010G20KT P6SM VCSH SCT012 BKN020 FM282300 17006KT P6SM VCSH SCT025 BKN035 FM290200 23005KT P6SM VCSH BKN040 FM290900 23006KT P6SM VCSH BKN008


Runway Data for KATL
Data provided by openaviationdata.com

Runway ID Mag Var Hdg Length Elevation Surface ILS Freq ILS Id ILS Slope
08L -3 93° 8990 ft 1026 ft Concrete 109.3 IHFW 3
08R -3 93° 9989 ft 1026 ft Concrete 109.9 IATL 3
09L -3 93° 11876 ft 1026 ft Concrete 110.5 IHZK 3
09R -3 93° 8990 ft 1026 ft Concrete 108.9 IFUN 3
26L -3 273° 9989 ft 1026 ft Concrete 108.7 IBRU 3
26R -3 273° 8990 ft 1026 ft Concrete 110.1 IGXZ 3
27L -3 273° 8990 ft 1026 ft Concrete 108.5 IFSQ 3
27R -3 273° 11876 ft 1026 ft Concrete 111.3 IAFA 3

Atlanta Hartsfield-Jackson International Airport, United States
Use only for reference purposes



Not for navigational purposes.